createdAt,value
2022-12-28T00:00:00.392Z,95.02
2022-12-28T00:00:32.135Z,95.51
2022-12-28T00:01:07.888Z,95.47
2022-12-28T00:01:39.550Z,95.15
2022-12-28T00:02:11.162Z,94.96
2022-12-28T00:02:42.811Z,94.93
2022-12-28T00:03:14.450Z,95.00
2022-12-28T00:03:46.864Z,95.10
2022-12-28T00:04:18.443Z,95.08
2022-12-28T00:04:50.190Z,94.92
2022-12-28T00:05:21.939Z,94.83
2022-12-28T00:05:53.925Z,94.60
2022-12-28T00:06:26.350Z,94.64
2022-12-28T00:06:57.912Z,94.27
2022-12-28T00:07:29.511Z,94.35
2022-12-28T00:08:01.153Z,94.73
2022-12-28T00:08:32.892Z,95.09
2022-12-28T00:09:04.675Z,95.03
2022-12-28T00:09:36.261Z,94.94
2022-12-28T00:10:07.993Z,95.07
2022-12-28T00:11:08.772Z,95.19
2022-12-28T00:11:31.462Z,95.07
2022-12-28T00:12:03.107Z,94.86
2022-12-28T00:12:34.709Z,94.81
2022-12-28T00:13:06.321Z,94.92
2022-12-28T00:13:38.544Z,95.10
2022-12-28T00:14:10.128Z,95.27
2022-12-28T00:14:41.894Z,95.48
2022-12-28T00:15:13.513Z,95.49
2022-12-28T00:15:45.088Z,95.72
2022-12-28T00:16:37.285Z,95.51
2022-12-28T00:17:08.923Z,95.56
2022-12-28T00:17:40.492Z,95.74
2022-12-28T00:18:12.112Z,95.83
2022-12-28T00:18:43.709Z,95.83
2022-12-28T00:19:16.934Z,95.52
2022-12-28T00:19:48.526Z,95.44
2022-12-28T00:20:20.236Z,95.42
2022-12-28T00:20:59.344Z,95.50
2022-12-28T00:21:31.189Z,95.60
2022-12-28T00:22:02.768Z,95.31
2022-12-28T00:22:34.518Z,95.09
2022-12-28T00:23:06.866Z,94.95
2022-12-28T00:23:38.447Z,95.02
2022-12-28T00:24:19.758Z,94.94
2022-12-28T00:24:51.306Z,95.26
2022-12-28T00:25:22.861Z,95.42
2022-12-28T00:25:54.604Z,95.62
2022-12-28T00:26:31.084Z,95.54
2022-12-28T00:27:02.666Z,95.62
2022-12-28T00:27:34.319Z,95.61
2022-12-28T00:28:05.971Z,95.27
2022-12-28T00:28:37.707Z,95.07
2022-12-28T00:29:09.399Z,95.10
2022-12-28T00:29:40.954Z,95.34
2022-12-28T00:30:13.002Z,95.03
2022-12-28T00:30:44.653Z,95.03
2022-12-28T00:31:16.636Z,95.21
2022-12-28T00:31:48.587Z,95.14
2022-12-28T00:32:20.184Z,94.92
2022-12-28T00:32:51.788Z,95.18
2022-12-28T00:33:23.437Z,95.26
2022-12-28T00:33:55.002Z,95.14
2022-12-28T00:34:26.654Z,94.82
2022-12-28T00:34:58.225Z,94.53
2022-12-28T00:35:29.791Z,94.56
2022-12-28T00:36:02.426Z,94.58
2022-12-28T00:37:08.385Z,94.96
2022-12-28T00:37:25.962Z,94.98
2022-12-28T00:37:57.529Z,94.69
2022-12-28T00:38:33.154Z,94.62
2022-12-28T00:39:05.673Z,94.64
2022-12-28T00:39:37.269Z,94.57
2022-12-28T00:40:09.711Z,94.43
2022-12-28T00:40:41.274Z,94.19
2022-12-28T00:41:12.843Z,94.10
2022-12-28T00:41:44.419Z,94.35
2022-12-28T00:42:16.145Z,94.31
2022-12-28T00:42:47.708Z,94.44
2022-12-28T00:43:19.517Z,94.75
2022-12-28T00:43:51.201Z,95.00
2022-12-28T00:44:22.770Z,95.35
2022-12-28T00:44:54.363Z,95.59
2022-12-28T00:45:25.964Z,95.59
2022-12-28T00:45:57.642Z,95.57
2022-12-28T00:46:29.233Z,95.59
2022-12-28T00:47:00.867Z,95.63
2022-12-28T00:47:32.460Z,95.56
2022-12-28T00:48:04.579Z,95.45
2022-12-28T00:48:36.183Z,95.51
2022-12-28T00:49:07.742Z,95.46
2022-12-28T00:49:39.410Z,94.72
2022-12-28T00:50:11.058Z,94.94
2022-12-28T00:50:44.461Z,95.37
2022-12-28T00:51:19.372Z,95.62
2022-12-28T00:51:50.994Z,95.62
2022-12-28T00:52:22.617Z,95.40
2022-12-28T00:52:54.208Z,95.35
2022-12-28T00:53:25.753Z,95.32
2022-12-28T00:53:57.398Z,95.14
2022-12-28T00:54:29.359Z,95.39
2022-12-28T00:55:00.967Z,95.14
2022-12-28T00:55:36.059Z,95.07
2022-12-28T00:56:12.181Z,95.21
2022-12-28T00:56:43.851Z,95.53
2022-12-28T00:57:15.437Z,95.61
2022-12-28T00:57:47.027Z,95.41
2022-12-28T00:58:18.630Z,95.47
2022-12-28T00:58:50.989Z,95.67
2022-12-28T00:59:22.622Z,95.46
2022-12-28T00:59:54.166Z,95.52
2022-12-28T01:00:26.301Z,95.33
2022-12-28T01:00:57.929Z,95.38
2022-12-28T01:01:29.976Z,95.60
2022-12-28T01:02:01.758Z,95.78
2022-12-28T01:02:33.496Z,95.68
2022-12-28T01:03:05.394Z,95.55
2022-12-28T01:03:37.046Z,95.34
2022-12-28T01:04:08.631Z,95.43
2022-12-28T01:04:40.208Z,95.62
2022-12-28T01:05:11.800Z,95.67
2022-12-28T01:05:43.369Z,95.72
2022-12-28T01:06:18.703Z,95.60
2022-12-28T01:06:50.268Z,95.60
2022-12-28T01:07:21.880Z,95.62
2022-12-28T01:07:53.528Z,95.83
2022-12-28T01:08:25.257Z,95.39
2022-12-28T01:08:56.776Z,95.41
2022-12-28T01:09:28.332Z,95.48
2022-12-28T01:09:59.946Z,95.66
2022-12-28T01:10:31.518Z,95.59
2022-12-28T01:11:14.012Z,95.37
2022-12-28T01:11:46.358Z,95.43
2022-12-28T01:12:17.952Z,95.38
2022-12-28T01:12:49.539Z,95.59
2022-12-28T01:13:21.093Z,95.30
2022-12-28T01:13:54.679Z,95.29
2022-12-28T01:14:26.345Z,95.53
2022-12-28T01:14:57.968Z,95.54
2022-12-28T01:15:29.580Z,95.55
2022-12-28T01:16:01.169Z,95.76
2022-12-28T01:16:35.857Z,95.63
2022-12-28T01:17:07.465Z,96.05
2022-12-28T01:17:39.463Z,96.28
2022-12-28T01:18:11.112Z,96.19
2022-12-28T01:18:45.706Z,96.26
2022-12-28T01:19:21.250Z,96.55
2022-12-28T01:19:54.165Z,96.47
2022-12-28T01:20:25.801Z,96.61
2022-12-28T01:20:57.394Z,96.59
2022-12-28T01:21:32.344Z,96.31
2022-12-28T01:22:03.928Z,96.11
2022-12-28T01:22:35.564Z,96.19
2022-12-28T01:23:07.352Z,96.18
2022-12-28T01:23:39.432Z,96.49
2022-12-28T01:24:10.984Z,96.45
2022-12-28T01:24:42.525Z,96.09
2022-12-28T01:25:14.240Z,96.13
2022-12-28T01:25:45.851Z,96.22
2022-12-28T01:26:17.495Z,95.83
2022-12-28T01:26:49.145Z,95.88
2022-12-28T01:27:20.915Z,96.19
2022-12-28T01:27:52.458Z,96.38
2022-12-28T01:28:24.037Z,96.40
2022-12-28T01:28:56.204Z,96.22
2022-12-28T01:29:27.769Z,96.42
2022-12-28T01:29:59.349Z,96.47
2022-12-28T01:30:30.961Z,96.13
2022-12-28T01:31:11.561Z,96.24
2022-12-28T01:31:43.194Z,96.33
2022-12-28T01:32:14.920Z,96.32
2022-12-28T01:32:46.537Z,96.24
2022-12-28T01:33:18.072Z,96.45
2022-12-28T01:33:49.869Z,96.56
2022-12-28T01:34:21.417Z,96.56
2022-12-28T01:34:52.994Z,96.51
2022-12-28T01:35:24.567Z,96.45
2022-12-28T01:35:56.190Z,96.45
2022-12-28T01:36:35.136Z,96.44
2022-12-28T01:37:06.724Z,96.35
2022-12-28T01:37:38.315Z,96.25
2022-12-28T01:38:09.890Z,96.45
2022-12-28T01:38:41.987Z,96.31
2022-12-28T01:39:13.558Z,96.42
2022-12-28T01:39:45.097Z,96.24
2022-12-28T01:40:16.784Z,96.22
2022-12-28T01:40:50.492Z,96.32
2022-12-28T01:41:22.735Z,96.39
2022-12-28T01:41:54.482Z,96.28
2022-12-28T01:42:26.130Z,96.24
2022-12-28T01:42:57.682Z,96.17
2022-12-28T01:43:46.779Z,96.44
2022-12-28T01:44:24.085Z,96.32
2022-12-28T01:44:55.660Z,96.64
2022-12-28T01:45:27.323Z,96.71
2022-12-28T01:45:59.066Z,96.60
2022-12-28T01:47:02.944Z,96.32
2022-12-28T01:47:35.780Z,96.70
2022-12-28T01:48:20.109Z,96.73
2022-12-28T01:49:13.767Z,96.87
2022-12-28T01:49:54.848Z,96.89
2022-12-28T01:50:28.815Z,97.07
2022-12-28T01:51:01.242Z,96.97
2022-12-28T01:51:55.970Z,97.23
2022-12-28T01:52:27.536Z,96.87
2022-12-28T01:53:02.790Z,96.87
2022-12-28T01:53:34.480Z,96.95
2022-12-28T01:54:06.085Z,96.64
2022-12-28T01:54:42.218Z,96.57
2022-12-28T01:55:23.632Z,96.57
2022-12-28T01:55:55.228Z,96.51
2022-12-28T01:56:27.744Z,96.58
2022-12-28T01:56:59.604Z,96.74
2022-12-28T01:57:33.576Z,96.98
2022-12-28T01:58:21.517Z,97.00
2022-12-28T01:58:54.027Z,96.77
2022-12-28T01:59:30.510Z,96.84
2022-12-28T02:00:20.597Z,96.60
2022-12-28T02:01:34.799Z,96.29
2022-12-28T02:02:07.020Z,96.48
2022-12-28T02:02:40.531Z,96.69
2022-12-28T02:03:18.552Z,96.70
2022-12-28T02:03:50.403Z,96.70
2022-12-28T02:04:22.086Z,96.67
2022-12-28T02:04:53.761Z,96.75
2022-12-28T02:05:29.933Z,96.89
2022-12-28T02:06:06.500Z,96.79
2022-12-28T02:06:38.578Z,96.70
2022-12-28T02:07:10.357Z,96.68
2022-12-28T02:07:53.465Z,96.51
2022-12-28T02:08:47.268Z,96.39
2022-12-28T02:09:39.711Z,96.13
2022-12-28T02:10:42.619Z,96.19
2022-12-28T02:11:03.537Z,95.84
2022-12-28T02:11:36.199Z,95.82
2022-12-28T02:12:10.901Z,95.81
2022-12-28T02:12:43.671Z,95.88
2022-12-28T02:13:17.290Z,95.76
2022-12-28T02:13:51.515Z,95.88
2022-12-28T02:14:23.233Z,96.20
2022-12-28T02:14:54.818Z,96.29
2022-12-28T02:15:26.429Z,96.38
2022-12-28T02:15:58.106Z,96.73
2022-12-28T02:16:29.804Z,96.71
2022-12-28T02:17:01.653Z,96.77
2022-12-28T02:17:34.260Z,96.78
2022-12-28T02:18:06.245Z,96.33
2022-12-28T02:18:38.949Z,96.33
2022-12-28T02:19:16.108Z,96.82
2022-12-28T02:19:49.397Z,96.91
2022-12-28T02:20:21.105Z,96.90
2022-12-28T02:21:20.267Z,96.88
2022-12-28T02:22:28.802Z,97.27
2022-12-28T02:23:24.270Z,97.31
2022-12-28T02:24:28.136Z,97.29
2022-12-28T02:25:29.555Z,96.98
2022-12-28T02:26:38.584Z,97.10
2022-12-28T02:27:19.269Z,97.05
2022-12-28T02:28:23.252Z,96.94
2022-12-28T02:29:10.017Z,97.05
2022-12-28T02:30:03.618Z,96.91
2022-12-28T02:30:42.663Z,96.94
2022-12-28T02:31:44.669Z,96.63
2022-12-28T02:32:34.844Z,96.35
2022-12-28T02:33:09.905Z,96.07
2022-12-28T02:33:51.341Z,95.75
2022-12-28T02:34:31.845Z,95.58
2022-12-28T02:35:33.319Z,95.67
2022-12-28T02:36:18.506Z,95.81
2022-12-28T02:36:56.619Z,95.88
2022-12-28T02:37:42.242Z,96.18
2022-12-28T02:38:23.384Z,96.36
2022-12-28T02:39:11.533Z,96.46
2022-12-28T02:39:52.841Z,96.47
2022-12-28T02:40:38.168Z,96.17
2022-12-28T02:41:14.132Z,96.20
2022-12-28T02:41:47.109Z,96.11
2022-12-28T02:42:20.880Z,95.90
2022-12-28T02:42:54.783Z,95.75
2022-12-28T02:43:26.528Z,95.70
2022-12-28T02:43:59.503Z,95.69
2022-12-28T02:44:49.409Z,95.76
2022-12-28T02:46:06.676Z,96.49
2022-12-28T02:46:57.191Z,96.46
2022-12-28T02:47:47.553Z,96.75
2022-12-28T02:48:37.856Z,96.78
2022-12-28T02:49:42.555Z,96.62
2022-12-28T02:50:16.328Z,96.58
2022-12-28T02:51:00.681Z,96.63
2022-12-28T02:51:41.384Z,96.80
2022-12-28T02:52:18.970Z,96.82
2022-12-28T02:53:12.939Z,96.79
2022-12-28T02:54:01.432Z,96.68
2022-12-28T02:55:15.923Z,96.79
2022-12-28T02:56:12.091Z,96.56
2022-12-28T02:56:55.855Z,96.67
2022-12-28T02:57:42.582Z,96.62
2022-12-28T02:58:26.143Z,96.67
2022-12-28T02:59:11.636Z,96.53
2022-12-28T03:00:02.210Z,96.47
2022-12-28T03:00:51.709Z,96.49
2022-12-28T03:01:38.323Z,96.18
2022-12-28T03:02:48.387Z,96.63
2022-12-28T03:03:55.414Z,96.66
2022-12-28T03:05:14.591Z,96.78
2022-12-28T03:06:19.789Z,96.84
2022-12-28T03:07:24.344Z,97.07
2022-12-28T03:08:19.888Z,96.84
2022-12-28T03:09:15.855Z,96.52
2022-12-28T03:10:15.816Z,96.64
2022-12-28T03:11:00.191Z,96.74
2022-12-28T03:11:44.021Z,97.01
2022-12-28T03:12:29.795Z,96.94
2022-12-28T03:13:28.101Z,96.84
2022-12-28T03:14:02.380Z,96.56
2022-12-28T03:14:43.195Z,97.09
2022-12-28T03:15:29.726Z,97.31
2022-12-28T03:16:07.772Z,96.90
2022-12-28T03:17:01.356Z,96.83
2022-12-28T03:17:55.334Z,97.09
2022-12-28T03:18:48.067Z,97.00
2022-12-28T03:19:39.879Z,96.43
2022-12-28T03:20:41.917Z,96.21
2022-12-28T03:21:33.935Z,95.46
2022-12-28T03:22:25.638Z,95.13
2022-12-28T03:23:17.732Z,95.84
2022-12-28T03:24:10.325Z,96.11
2022-12-28T03:25:03.041Z,96.29
2022-12-28T03:25:58.990Z,96.09
2022-12-28T03:26:52.916Z,96.25
2022-12-28T03:27:44.781Z,96.21
2022-12-28T03:28:39.441Z,96.77
2022-12-28T03:29:34.789Z,97.08
2022-12-28T03:30:32.837Z,97.30
2022-12-28T03:31:12.535Z,97.61
2022-12-28T03:31:44.305Z,97.59
2022-12-28T03:32:15.967Z,97.59
2022-12-28T03:32:48.616Z,97.65
2022-12-28T03:33:20.272Z,97.94
2022-12-28T03:34:06.628Z,97.59
2022-12-28T03:34:38.557Z,97.21
2022-12-28T03:35:10.299Z,97.28
2022-12-28T03:36:05.215Z,97.36
2022-12-28T03:37:14.883Z,97.18
2022-12-28T03:38:11.503Z,97.11
2022-12-28T03:39:01.588Z,97.21
2022-12-28T03:39:48.037Z,97.30
2022-12-28T03:40:29.580Z,97.08
2022-12-28T03:41:08.374Z,96.91
2022-12-28T03:42:18.033Z,96.78
2022-12-28T03:43:10.499Z,96.40
2022-12-28T03:43:56.160Z,96.00
2022-12-28T03:44:33.038Z,95.81
2022-12-28T03:45:44.476Z,95.65
2022-12-28T03:46:35.755Z,95.64
2022-12-28T03:47:11.588Z,95.78
2022-12-28T03:47:44.995Z,96.10
2022-12-28T03:48:17.902Z,96.59
2022-12-28T03:48:50.642Z,96.74
2022-12-28T03:49:24.318Z,96.79
2022-12-28T03:49:55.942Z,96.60
2022-12-28T03:50:28.713Z,96.77
2022-12-28T03:51:00.881Z,97.00
2022-12-28T03:51:33.495Z,97.32
2022-12-28T03:52:07.291Z,97.45
2022-12-28T03:52:38.871Z,97.61
2022-12-28T03:53:11.091Z,97.76
2022-12-28T03:53:45.679Z,97.83
2022-12-28T03:54:17.924Z,97.54
2022-12-28T03:54:49.559Z,97.47
2022-12-28T03:55:21.238Z,97.47
2022-12-28T03:55:52.798Z,97.16
2022-12-28T03:56:27.826Z,97.06
2022-12-28T03:56:59.411Z,96.91
2022-12-28T03:57:31.017Z,96.85
2022-12-28T03:58:02.624Z,96.78
2022-12-28T03:58:34.274Z,96.82
2022-12-28T03:59:05.865Z,96.97
2022-12-28T03:59:37.519Z,97.29
2022-12-28T04:00:10.921Z,97.07
2022-12-28T04:00:42.529Z,96.64
2022-12-28T04:01:14.622Z,96.38
2022-12-28T04:01:46.400Z,96.60
2022-12-28T04:02:18.253Z,96.64
2022-12-28T04:02:51.177Z,96.74
2022-12-28T04:03:22.923Z,96.63
2022-12-28T04:03:54.531Z,96.59
2022-12-28T04:04:26.114Z,96.13
2022-12-28T04:04:57.656Z,95.53
2022-12-28T04:05:29.312Z,95.63
2022-12-28T04:06:01.186Z,95.85
2022-12-28T04:06:32.787Z,96.17
2022-12-28T04:07:04.413Z,96.23
2022-12-28T04:07:36.028Z,96.07
2022-12-28T04:08:07.571Z,96.11
2022-12-28T04:08:39.380Z,95.81
2022-12-28T04:09:10.994Z,95.74
2022-12-28T04:09:42.550Z,95.90
2022-12-28T04:10:14.185Z,95.66
2022-12-28T04:10:45.812Z,95.84
2022-12-28T04:11:17.394Z,96.20
2022-12-28T04:11:48.992Z,96.17
2022-12-28T04:12:21.237Z,96.20
2022-12-28T04:12:56.896Z,96.51
2022-12-28T04:13:30.787Z,96.60
2022-12-28T04:14:10.333Z,96.23
2022-12-28T04:14:42.405Z,96.16
2022-12-28T04:15:14.049Z,96.02
2022-12-28T04:15:56.247Z,95.73
2022-12-28T04:16:27.886Z,95.69
2022-12-28T04:16:59.485Z,95.79
2022-12-28T04:17:31.082Z,95.81
2022-12-28T04:18:02.666Z,96.01
2022-12-28T04:18:34.833Z,96.09
2022-12-28T04:19:06.425Z,96.09
2022-12-28T04:19:38.065Z,96.22
2022-12-28T04:20:09.956Z,96.24
2022-12-28T04:20:41.518Z,95.89
2022-12-28T04:21:14.738Z,95.63
2022-12-28T04:21:47.490Z,95.94
2022-12-28T04:22:19.039Z,96.29
2022-12-28T04:22:50.621Z,96.87
2022-12-28T04:23:22.340Z,97.10
2022-12-28T04:23:53.969Z,96.97
2022-12-28T04:24:25.605Z,96.71
2022-12-28T04:24:57.164Z,96.78
2022-12-28T04:25:28.765Z,96.46
2022-12-28T04:26:09.590Z,96.51
2022-12-28T04:26:41.193Z,96.61
2022-12-28T04:27:12.784Z,96.60
2022-12-28T04:27:44.381Z,96.60
2022-12-28T04:28:15.925Z,96.14
2022-12-28T04:28:47.540Z,96.12
2022-12-28T04:29:19.162Z,96.35
2022-12-28T04:29:50.920Z,96.54
2022-12-28T04:30:22.522Z,96.19
2022-12-28T04:30:54.343Z,96.35
2022-12-28T04:31:25.986Z,96.45
2022-12-28T04:31:57.853Z,96.34
2022-12-28T04:32:29.462Z,96.05
2022-12-28T04:33:01.014Z,95.88
2022-12-28T04:33:34.118Z,95.81
2022-12-28T04:34:06.656Z,95.78
2022-12-28T04:34:40.909Z,96.22
2022-12-28T04:35:14.962Z,96.41
2022-12-28T04:35:46.605Z,96.56
2022-12-28T04:36:18.201Z,96.34
2022-12-28T04:36:49.779Z,96.07
2022-12-28T04:37:21.390Z,95.88
2022-12-28T04:37:52.976Z,96.01
2022-12-28T04:38:24.525Z,95.98
2022-12-28T04:38:56.113Z,95.86
2022-12-28T04:39:27.741Z,95.81
2022-12-28T04:40:19.259Z,96.74
2022-12-28T04:40:50.802Z,97.23
2022-12-28T04:41:22.379Z,96.99
2022-12-28T04:41:53.994Z,97.46
2022-12-28T04:42:26.327Z,97.63
2022-12-28T04:42:57.958Z,97.65
2022-12-28T04:43:33.306Z,97.45
2022-12-28T04:44:04.886Z,97.09
2022-12-28T04:44:36.482Z,96.83
2022-12-28T04:45:08.616Z,96.67
2022-12-28T04:45:40.227Z,96.40
2022-12-28T04:46:14.181Z,96.07
2022-12-28T04:46:45.832Z,95.91
2022-12-28T04:47:17.447Z,95.87
2022-12-28T04:47:49.031Z,95.63
2022-12-28T04:48:20.633Z,95.30
2022-12-28T04:48:52.265Z,95.21
2022-12-28T04:49:23.837Z,95.00
2022-12-28T04:49:55.522Z,94.98
2022-12-28T04:50:29.898Z,94.87
2022-12-28T04:51:25.679Z,95.19
2022-12-28T04:51:57.283Z,95.39
2022-12-28T04:52:28.858Z,95.86
2022-12-28T04:53:00.418Z,96.35
2022-12-28T04:53:31.960Z,96.08
2022-12-28T04:54:03.724Z,95.71
2022-12-28T04:54:35.324Z,95.61
2022-12-28T04:55:07.320Z,95.68
2022-12-28T04:56:03.934Z,95.89
2022-12-28T04:56:35.531Z,95.94
2022-12-28T04:57:07.088Z,95.81
2022-12-28T04:57:38.632Z,95.81
2022-12-28T04:58:10.254Z,96.22
2022-12-28T04:58:41.976Z,96.89
2022-12-28T04:59:13.558Z,97.19
2022-12-28T04:59:45.169Z,97.32
2022-12-28T05:00:17.046Z,97.37
2022-12-28T05:00:48.623Z,97.46
2022-12-28T05:01:20.335Z,97.13
2022-12-28T05:01:52.092Z,97.18
2022-12-28T05:02:23.795Z,97.26
2022-12-28T05:02:59.244Z,97.01
2022-12-28T05:03:30.891Z,96.83
2022-12-28T05:04:02.675Z,97.04
2022-12-28T05:04:34.255Z,97.08
2022-12-28T05:05:06.155Z,96.87
2022-12-28T05:05:37.810Z,96.61
2022-12-28T05:06:13.139Z,96.24
2022-12-28T05:06:44.698Z,96.16
2022-12-28T05:07:16.279Z,95.98
2022-12-28T05:07:47.910Z,96.26
2022-12-28T05:08:19.442Z,96.32
2022-12-28T05:08:51.855Z,96.67
2022-12-28T05:09:23.739Z,96.73
2022-12-28T05:09:55.345Z,96.71
2022-12-28T05:10:27.424Z,96.67
2022-12-28T05:11:03.753Z,96.85
2022-12-28T05:11:35.340Z,96.69
2022-12-28T05:12:06.936Z,96.67
2022-12-28T05:12:38.528Z,96.75
2022-12-28T05:13:10.114Z,96.87
2022-12-28T05:13:41.950Z,96.60
2022-12-28T05:14:13.577Z,96.90
2022-12-28T05:14:45.188Z,97.06
2022-12-28T05:15:16.763Z,96.88
2022-12-28T05:15:48.344Z,96.88
2022-12-28T05:16:22.505Z,96.95
2022-12-28T05:16:54.116Z,96.72
2022-12-28T05:17:25.699Z,96.36
2022-12-28T05:17:57.338Z,96.07
2022-12-28T05:18:29.787Z,95.98
2022-12-28T05:19:01.369Z,96.17
2022-12-28T05:19:32.990Z,96.32
2022-12-28T05:20:05.392Z,96.11
2022-12-28T05:20:36.973Z,95.76
2022-12-28T05:21:10.831Z,95.93
2022-12-28T05:21:42.411Z,96.49
2022-12-28T05:22:15.675Z,96.59
2022-12-28T05:22:47.352Z,96.36
2022-12-28T05:23:18.953Z,96.11
2022-12-28T05:23:51.366Z,96.58
2022-12-28T05:24:22.969Z,97.05
2022-12-28T05:24:54.587Z,96.94
2022-12-28T05:25:26.152Z,97.34
2022-12-28T05:25:57.961Z,97.74
2022-12-28T05:26:29.860Z,97.27
2022-12-28T05:27:01.679Z,96.89
2022-12-28T05:27:33.309Z,96.85
2022-12-28T05:28:04.974Z,96.82
2022-12-28T05:28:36.572Z,96.87
2022-12-28T05:29:08.265Z,96.79
2022-12-28T05:29:39.850Z,96.78
2022-12-28T05:30:11.711Z,96.66
2022-12-28T05:30:43.247Z,97.20
2022-12-28T05:31:17.878Z,97.10
2022-12-28T05:31:49.468Z,96.82
2022-12-28T05:32:21.087Z,96.68
2022-12-28T05:32:52.687Z,96.61
2022-12-28T05:33:24.271Z,96.62
2022-12-28T05:33:56.135Z,96.19
2022-12-28T05:34:27.683Z,95.77
2022-12-28T05:34:59.260Z,95.70
2022-12-28T05:35:30.842Z,95.84
2022-12-28T05:36:04.598Z,96.05
2022-12-28T05:36:39.756Z,96.16
2022-12-28T05:37:14.411Z,95.84
2022-12-28T05:37:48.547Z,95.92
2022-12-28T05:38:20.139Z,95.89
2022-12-28T05:38:52.779Z,96.07
2022-12-28T05:39:24.629Z,96.07
2022-12-28T05:39:56.644Z,96.36
2022-12-28T05:40:28.310Z,96.53
2022-12-28T05:41:11.299Z,96.34
2022-12-28T05:41:42.895Z,96.08
2022-12-28T05:42:14.442Z,95.88
2022-12-28T05:42:51.200Z,95.80
2022-12-28T05:43:23.340Z,95.88
2022-12-28T05:43:56.244Z,95.70
2022-12-28T05:44:28.082Z,95.30
2022-12-28T05:44:59.660Z,95.04
2022-12-28T05:45:31.256Z,95.01
2022-12-28T05:46:11.462Z,95.17
2022-12-28T05:46:43.123Z,95.10
2022-12-28T05:47:14.673Z,95.16
2022-12-28T05:47:46.241Z,95.15
2022-12-28T05:48:17.796Z,95.04
2022-12-28T05:48:49.452Z,95.17
2022-12-28T05:49:21.298Z,95.27
2022-12-28T05:49:52.888Z,95.11
2022-12-28T05:50:24.521Z,95.15
2022-12-28T05:50:59.559Z,95.06
2022-12-28T05:51:32.574Z,95.03
2022-12-28T05:52:04.279Z,94.60
2022-12-28T05:52:38.642Z,94.37
2022-12-28T05:53:10.487Z,94.47
2022-12-28T05:53:43.152Z,94.99
2022-12-28T05:54:14.775Z,95.79
2022-12-28T05:54:46.330Z,96.02
2022-12-28T05:55:17.992Z,96.08
2022-12-28T05:55:49.565Z,95.95
2022-12-28T05:56:29.450Z,96.19
2022-12-28T05:57:01.001Z,96.60
2022-12-28T05:57:32.659Z,97.04
2022-12-28T05:58:05.646Z,97.13
2022-12-28T05:58:37.308Z,97.12
2022-12-28T05:59:09.290Z,97.16
2022-12-28T05:59:40.957Z,97.00
2022-12-28T06:00:13.144Z,97.13
2022-12-28T06:00:44.721Z,96.99
2022-12-28T06:01:21.737Z,97.17
2022-12-28T06:01:53.507Z,97.34
2022-12-28T06:02:27.686Z,97.40
2022-12-28T06:02:59.467Z,97.42
2022-12-28T06:03:31.400Z,97.47
2022-12-28T06:04:15.192Z,96.90
2022-12-28T06:04:46.757Z,96.51
2022-12-28T06:05:18.302Z,96.44
2022-12-28T06:05:50.508Z,96.68
2022-12-28T06:06:22.437Z,97.09
2022-12-28T06:06:56.666Z,96.68
2022-12-28T06:07:28.256Z,96.39
2022-12-28T06:08:01.115Z,96.22
2022-12-28T06:08:32.952Z,96.40
2022-12-28T06:09:04.946Z,96.56
2022-12-28T06:09:36.514Z,96.87
2022-12-28T06:10:08.598Z,96.88
2022-12-28T06:10:40.155Z,96.68
2022-12-28T06:11:14.541Z,96.77
2022-12-28T06:11:46.285Z,96.74
2022-12-28T06:12:18.024Z,96.90
2022-12-28T06:12:49.638Z,96.99
2022-12-28T06:13:21.198Z,96.62
2022-12-28T06:13:53.240Z,96.37
2022-12-28T06:14:24.784Z,96.39
2022-12-28T06:14:56.389Z,96.35
2022-12-28T06:15:27.959Z,96.58
2022-12-28T06:16:04.588Z,96.26
2022-12-28T06:16:39.344Z,96.19
2022-12-28T06:17:11.012Z,96.45
2022-12-28T06:17:42.602Z,96.44
2022-12-28T06:18:14.187Z,96.57
2022-12-28T06:18:46.351Z,96.42
2022-12-28T06:19:18.354Z,96.24
2022-12-28T06:19:49.918Z,96.20
2022-12-28T06:20:21.454Z,96.18
2022-12-28T06:20:56.983Z,96.79
2022-12-28T06:21:31.786Z,96.82
2022-12-28T06:22:03.395Z,97.43
2022-12-28T06:22:36.164Z,97.49
2022-12-28T06:23:07.701Z,97.03
2022-12-28T06:23:39.365Z,96.87
2022-12-28T06:24:11.490Z,97.01
2022-12-28T06:24:43.113Z,97.17
2022-12-28T06:25:14.752Z,97.00
2022-12-28T06:25:46.365Z,96.51
2022-12-28T06:26:20.388Z,96.17
2022-12-28T06:26:51.998Z,95.92
2022-12-28T06:27:23.579Z,95.93
2022-12-28T06:27:55.135Z,95.86
2022-12-28T06:28:27.480Z,95.65
2022-12-28T06:28:59.996Z,95.48
2022-12-28T06:29:31.544Z,95.35
2022-12-28T06:30:03.498Z,95.55
2022-12-28T06:30:35.126Z,95.51
2022-12-28T06:31:23.828Z,95.60
2022-12-28T06:31:56.615Z,95.85
2022-12-28T06:32:28.264Z,95.81
2022-12-28T06:32:59.830Z,95.95
2022-12-28T06:33:31.588Z,96.03
2022-12-28T06:34:04.884Z,96.07
2022-12-28T06:34:36.709Z,96.07
2022-12-28T06:35:08.772Z,96.24
2022-12-28T06:35:41.281Z,96.29
2022-12-28T06:36:19.927Z,96.05
2022-12-28T06:36:52.832Z,95.79
2022-12-28T06:37:24.373Z,96.01
2022-12-28T06:37:55.901Z,95.99
2022-12-28T06:38:29.654Z,95.61
2022-12-28T06:39:03.526Z,95.87
2022-12-28T06:39:35.072Z,95.51
2022-12-28T06:40:07.227Z,95.42
2022-12-28T06:41:11.736Z,95.61
2022-12-28T06:41:30.755Z,95.47
2022-12-28T06:42:02.318Z,95.20
2022-12-28T06:42:33.914Z,95.74
2022-12-28T06:43:05.674Z,95.88
2022-12-28T06:43:39.021Z,96.02
2022-12-28T06:44:13.559Z,96.49
2022-12-28T06:44:45.139Z,96.44
2022-12-28T06:45:16.823Z,96.27
2022-12-28T06:45:57.758Z,96.28
2022-12-28T06:46:30.508Z,96.54
2022-12-28T06:47:02.110Z,96.79
2022-12-28T06:47:36.183Z,95.96
2022-12-28T06:48:07.765Z,96.08
2022-12-28T06:48:40.606Z,96.27
2022-12-28T06:49:12.267Z,96.38
2022-12-28T06:49:43.911Z,96.39
2022-12-28T06:50:15.605Z,96.05
2022-12-28T06:51:04.937Z,95.79
2022-12-28T06:51:40.674Z,96.12
2022-12-28T06:52:12.449Z,96.24
2022-12-28T06:52:44.018Z,96.45
2022-12-28T06:53:15.560Z,96.57
2022-12-28T06:53:48.120Z,96.54
2022-12-28T06:54:19.729Z,96.78
2022-12-28T06:54:51.339Z,96.91
2022-12-28T06:55:22.975Z,96.49
2022-12-28T06:56:03.539Z,96.49
2022-12-28T06:56:36.405Z,96.62
2022-12-28T06:57:07.993Z,96.81
2022-12-28T06:57:39.600Z,96.87
2022-12-28T06:58:11.132Z,96.86
2022-12-28T06:58:43.754Z,96.47
2022-12-28T06:59:15.374Z,96.62
2022-12-28T06:59:46.979Z,96.84
2022-12-28T07:00:18.689Z,96.69
2022-12-28T07:00:50.455Z,96.22
2022-12-28T07:01:25.212Z,95.73
2022-12-28T07:01:56.995Z,95.52
2022-12-28T07:02:28.769Z,95.73
2022-12-28T07:03:00.487Z,95.94
2022-12-28T07:03:32.064Z,96.11
2022-12-28T07:04:05.831Z,96.17
2022-12-28T07:04:37.387Z,95.93
2022-12-28T07:05:09.231Z,95.63
2022-12-28T07:05:40.785Z,95.31
2022-12-28T07:06:13.713Z,95.47
2022-12-28T07:06:45.475Z,95.54
2022-12-28T07:07:17.049Z,95.24
2022-12-28T07:07:48.659Z,95.10
2022-12-28T07:08:20.253Z,95.30
2022-12-28T07:08:52.513Z,95.51
2022-12-28T07:09:24.080Z,95.74
2022-12-28T07:09:55.664Z,96.14
2022-12-28T07:10:27.246Z,95.89
2022-12-28T07:11:13.640Z,95.57
2022-12-28T07:11:45.554Z,95.45
2022-12-28T07:12:17.148Z,95.35
2022-12-28T07:12:48.695Z,95.04
2022-12-28T07:13:26.201Z,94.68
2022-12-28T07:13:59.806Z,94.54
2022-12-28T07:14:32.456Z,94.70
2022-12-28T07:15:04.337Z,94.63
2022-12-28T07:15:37.035Z,94.45
2022-12-28T07:16:12.709Z,94.35
2022-12-28T07:16:44.812Z,94.57
2022-12-28T07:17:16.425Z,94.63
2022-12-28T07:17:47.982Z,94.54
2022-12-28T07:18:19.559Z,94.67
2022-12-28T07:18:51.247Z,94.66
2022-12-28T07:19:22.813Z,94.81
2022-12-28T07:19:55.626Z,94.46
2022-12-28T07:20:27.249Z,94.32
2022-12-28T07:21:07.691Z,94.08
2022-12-28T07:21:40.168Z,93.60
2022-12-28T07:22:11.757Z,93.75
2022-12-28T07:22:43.407Z,93.78
2022-12-28T07:23:14.978Z,94.36
2022-12-28T07:23:46.877Z,94.39
2022-12-28T07:24:18.496Z,94.61
2022-12-28T07:24:50.081Z,94.97
2022-12-28T07:25:21.700Z,95.14
2022-12-28T07:25:53.257Z,95.16
2022-12-28T07:26:28.723Z,95.33
2022-12-28T07:27:00.318Z,95.07
2022-12-28T07:27:31.933Z,94.70
2022-12-28T07:28:03.624Z,94.95
2022-12-28T07:28:41.090Z,95.26
2022-12-28T07:29:12.757Z,95.89
2022-12-28T07:29:44.349Z,95.77
2022-12-28T07:30:15.980Z,95.77
2022-12-28T07:30:47.573Z,95.36
2022-12-28T07:31:22.227Z,95.70
2022-12-28T07:31:53.881Z,95.60
2022-12-28T07:32:25.468Z,95.37
2022-12-28T07:32:57.112Z,95.00
2022-12-28T07:33:28.701Z,95.11
2022-12-28T07:34:01.267Z,94.97
2022-12-28T07:34:33.296Z,94.83